Time;durP1;ratioP1;P1;durP2;ratioP2;P2;SDS_P1;SDS_P2;PMS_P1;PMS_P2;Temp;Humidity;BMP_temperature;BMP_pressure;BME280_temperature;BME280_humidity;BME280_pressure;Samples;Min_cycle;Max_cycle;Signal;HPM_P1;HPM_P2
2021/09/13 08:09:22;;;;;;;10.82;5.75;;;18.60;99.90;;;;;;12009547;27;20760;-66
2021/09/13 08:15:10;;;;;;;16.08;5.70;;;19.10;99.90;;;;;;11991607;28;20071;-66
2021/09/13 08:20:57;;;;;;;10.75;5.30;;;19.90;99.90;;;;;;12019662;28;20057;-64
2021/09/13 08:26:45;;;;;;;15.85;6.18;;;20.50;99.90;;;;;;12003120;28;20045;-63
2021/09/13 08:32:32;;;;;;;17.00;5.78;;;20.80;99.90;;;;;;12022486;28;20060;-63
2021/09/13 08:38:19;;;;;;;10.50;5.72;;;21.10;99.90;;;;;;12021673;28;20444;-65
2021/09/13 08:44:08;;;;;;;15.13;5.75;;;21.10;99.90;;;;;;12017926;28;20052;-65
2021/09/13 08:50:04;;;;;;;15.25;5.97;;;21.40;99.90;;;;;;12015182;28;20052;-66
2021/09/13 08:55:51;;;;;;;11.98;5.45;;;21.40;99.90;;;;;;12020000;28;20071;-64
2021/09/13 09:01:40;;;;;;;11.38;5.00;;;21.50;99.90;;;;;;12020227;28;20067;-65
2021/09/13 09:07:28;;;;;;;17.58;5.15;;;21.60;99.90;;;;;;12047581;28;20068;-63
2021/09/13 09:13:17;;;;;;;11.20;5.00;;;21.70;99.80;;;;;;12052613;28;20113;-64
2021/09/13 09:19:05;;;;;;;14.43;4.70;;;21.80;99.50;;;;;;12037389;28;20113;-66
2021/09/13 09:24:53;;;;;;;8.02;3.83;;;21.80;99.30;;;;;;12023608;28;20049;-67
2021/09/13 09:30:42;;;;;;;8.55;3.28;;;21.90;99.30;;;;;;12005252;28;20049;-66
2021/09/13 09:36:30;;;;;;;7.93;3.70;;;21.90;98.90;;;;;;11954048;28;20044;-65
2021/09/13 09:42:29;;;;;;;8.23;3.75;;;21.90;98.80;;;;;;12019872;28;20079;-65
2021/09/13 09:48:16;;;;;;;6.82;3.50;;;21.90;98.60;;;;;;12016817;28;20045;-65
2021/09/13 10:00:25;;;;;;;11.20;3.47;;;22.00;98.80;;;;;;12083864;28;20040;-65
2021/09/13 10:06:15;;;;;;;7.47;3.15;;;22.00;98.60;;;;;;12086883;28;20043;-65
2021/09/13 10:12:05;;;;;;;13.02;3.70;;;22.00;98.10;;;;;;12083587;28;20040;-65
2021/09/13 10:17:52;;;;;;;11.57;3.05;;;22.10;98.50;;;;;;12077757;28;20499;-65
2021/09/13 10:23:39;;;;;;;9.63;2.90;;;22.20;98.00;;;;;;12053731;28;20081;-65
2021/09/13 10:29:29;;;;;;;6.38;3.25;;;22.30;98.10;;;;;;12063977;28;20052;-66
2021/09/13 10:35:17;;;;;;;6.60;3.15;;;22.30;98.10;;;;;;12084022;28;20512;-65
2021/09/13 10:41:04;;;;;;;5.53;2.90;;;22.40;97.20;;;;;;12081599;28;20273;-66
2021/09/13 10:47:03;;;;;;;6.85;2.97;;;22.40;97.10;;;;;;12057461;28;20071;-65
2021/09/13 10:52:51;;;;;;;7.00;3.05;;;22.50;97.30;;;;;;12067569;28;20113;-65
2021/09/13 10:58:50;;;;;;;4.82;2.83;;;22.70;97.10;;;;;;12064473;28;20112;-65
2021/09/13 11:05:17;;;;;;;6.47;3.30;;;22.80;97.20;;;;;;12070661;28;20113;-65
2021/09/13 11:11:09;;;;;;;4.80;2.47;;;22.90;96.50;;;;;;12075512;28;20048;-65
2021/09/13 11:16:58;;;;;;;6.88;2.70;;;23.00;95.70;;;;;;12073344;28;20993;-63
2021/09/13 11:22:46;;;;;;;4.78;2.55;;;23.10;95.70;;;;;;12028433;28;20052;-64
2021/09/13 11:28:33;;;;;;;5.90;2.72;;;23.30;95.50;;;;;;12027459;28;20114;-64
2021/09/13 11:34:39;;;;;;;5.55;2.80;;;23.40;95.30;;;;;;12024541;28;20044;-65
2021/09/13 11:40:27;;;;;;;5.95;3.10;;;23.50;95.10;;;;;;12024860;27;20101;-65
2021/09/13 11:46:14;;;;;;;6.82;2.90;;;23.80;94.70;;;;;;12031818;28;20048;-64
2021/09/13 11:52:07;;;;;;;5.00;2.97;;;24.00;94.40;;;;;;12064895;28;20051;-64
2021/09/13 11:57:58;;;;;;;3.67;3.05;;;24.20;94.20;;;;;;12070614;28;20109;-64
2021/09/13 12:03:44;;;;;;;3.97;2.75;;;24.30;94.00;;;;;;12043354;28;20116;-64
2021/09/13 12:09:33;;;;;;;6.53;2.83;;;24.40;93.70;;;;;;12028230;28;20048;-64
2021/09/13 12:15:25;;;;;;;4.57;2.92;;;24.50;94.10;;;;;;12045349;28;20515;-65
2021/09/13 12:21:19;;;;;;;5.32;2.53;;;24.60;93.40;;;;;;12051612;28;20032;-63
2021/09/13 12:27:18;;;;;;;4.07;2.72;;;24.80;93.60;;;;;;12075298;28;20064;-64
2021/09/13 12:33:08;;;;;;;6.38;2.65;;;24.90;93.20;;;;;;12074542;28;20063;-63
2021/09/13 12:38:57;;;;;;;6.30;2.90;;;25.00;92.60;;;;;;12075955;28;20060;-63
2021/09/13 12:44:59;;;;;;;9.63;3.15;;;25.20;92.70;;;;;;12070236;28;20508;-63
2021/09/13 12:50:54;;;;;;;8.30;2.47;;;25.20;92.70;;;;;;12075851;28;20044;-64
2021/09/13 12:56:45;;;;;;;5.72;3.05;;;25.30;92.50;;;;;;12082524;28;20157;-64
2021/09/13 13:02:32;;;;;;;3.58;2.67;;;25.70;91.90;;;;;;12049111;28;20052;-64
2021/09/13 13:08:22;;;;;;;7.13;3.00;;;25.70;92.00;;;;;;12038500;28;20052;-64
2021/09/13 13:14:09;;;;;;;6.25;2.30;;;25.90;92.20;;;;;;12064705;28;20044;-64
2021/09/13 13:19:56;;;;;;;7.95;2.55;;;26.10;90.40;;;;;;12080587;28;20055;-66
2021/09/13 13:25:47;;;;;;;4.03;2.30;;;26.30;90.20;;;;;;12080729;28;20051;-64
2021/09/13 13:31:37;;;;;;;5.00;2.30;;;26.40;89.20;;;;;;12073167;28;21214;-64
2021/09/13 13:37:23;;;;;;;3.33;2.30;;;26.50;86.70;;;;;;12052723;28;20082;-64
2021/09/13 13:43:12;;;;;;;7.25;2.30;;;26.70;85.80;;;;;;12080949;27;20138;-64
2021/09/13 13:48:59;;;;;;;4.55;2.10;;;26.60;85.40;;;;;;12079887;27;20056;-64
2021/09/13 13:54:46;;;;;;;2.45;2.25;;;26.70;84.90;;;;;;12079093;28;20048;-65
2021/09/13 14:00:34;;;;;;;4.30;2.20;;;26.90;84.70;;;;;;12082681;27;20059;-64
2021/09/13 14:06:21;;;;;;;3.65;2.33;;;27.10;83.00;;;;;;12082654;28;20507;-64
2021/09/13 14:12:08;;;;;;;3.33;2.50;;;27.30;84.10;;;;;;12084083;27;20920;-64
2021/09/13 14:17:56;;;;;;;4.00;2.60;;;27.10;83.30;;;;;;12044315;27;20048;-64
2021/09/13 14:23:54;;;;;;;7.65;2.30;;;26.80;84.30;;;;;;12031377;27;20063;-64
2021/09/13 14:29:41;;;;;;;4.25;2.10;;;26.60;84.20;;;;;;12029273;27;20123;-64
2021/09/13 14:35:29;;;;;;;2.47;2.10;;;26.50;84.50;;;;;;12035833;27;20066;-64
2021/09/13 14:41:16;;;;;;;3.25;1.80;;;26.70;84.80;;;;;;12079015;27;20044;-64
2021/09/13 14:47:03;;;;;;;2.47;1.95;;;26.60;83.60;;;;;;12079253;27;20056;-64
2021/09/13 14:52:52;;;;;;;2.40;2.20;;;26.90;82.60;;;;;;12080342;27;20105;-64
2021/09/13 14:58:39;;;;;;;2.85;1.90;;;26.90;83.10;;;;;;12075174;28;20048;-64
2021/09/13 15:04:25;;;;;;;3.72;2.13;;;27.10;83.40;;;;;;12052934;28;20300;-64
2021/09/13 15:10:14;;;;;;;3.47;2.20;;;27.40;82.30;;;;;;12068519;27;20058;-64
2021/09/13 15:16:02;;;;;;;2.58;1.85;;;27.50;83.10;;;;;;12076605;27;20292;-63
2021/09/13 15:21:49;;;;;;;4.75;2.05;;;27.20;81.80;;;;;;12029495;28;20064;-63
2021/09/13 15:27:37;;;;;;;4.10;1.88;;;26.80;82.80;;;;;;12077977;28;20071;-64
2021/09/13 15:33:25;;;;;;;6.40;2.30;;;26.60;83.50;;;;;;12075106;28;20044;-64
2021/09/13 15:39:12;;;;;;;2.35;2.05;;;26.40;83.70;;;;;;12070648;28;20488;-65
2021/09/13 15:45:00;;;;;;;6.38;2.10;;;26.40;84.40;;;;;;12070774;28;20055;-65
2021/09/13 15:50:47;;;;;;;2.40;2.20;;;26.60;84.00;;;;;;12068775;28;20048;-64
2021/09/13 15:56:34;;;;;;;4.43;2.08;;;26.90;82.30;;;;;;12072227;28;20035;-64
2021/09/13 16:02:23;;;;;;;2.78;1.90;;;27.20;81.20;;;;;;12071126;27;22149;-64
2021/09/13 16:08:10;;;;;;;3.72;2.10;;;27.50;80.70;;;;;;12072493;28;20068;-65
2021/09/13 16:13:57;;;;;;;4.38;2.00;;;27.60;79.50;;;;;;12067102;27;20058;-64
2021/09/13 16:19:45;;;;;;;4.07;1.95;;;27.50;78.70;;;;;;12077461;28;20048;-65
2021/09/13 16:25:32;;;;;;;2.45;2.10;;;27.30;79.70;;;;;;12067606;28;20105;-65
2021/09/13 16:31:19;;;;;;;6.43;2.25;;;27.60;80.40;;;;;;12080096;27;20055;-65
2021/09/13 16:37:08;;;;;;;2.38;2.17;;;27.70;79.90;;;;;;12086352;27;20048;-65
2021/09/13 16:42:55;;;;;;;6.78;3.53;;;28.30;77.40;;;;;;12056826;28;20051;-65
2021/09/13 16:48:42;;;;;;;3.35;2.20;;;29.90;72.50;;;;;;12040648;28;20515;-67
2021/09/13 16:54:33;;;;;;;2.42;2.10;;;31.60;67.50;;;;;;12036969;27;20465;-66
2021/09/13 17:00:24;;;;;;;2.97;2.05;;;32.80;62.80;;;;;;12027438;27;20106;-65
2021/09/13 17:06:12;;;;;;;4.63;1.85;;;32.50;62.70;;;;;;12024442;27;20063;-66
2021/09/13 17:12:08;;;;;;;4.50;2.28;;;33.20;60.80;;;;;;12069445;27;20044;-65
2021/09/13 17:17:55;;;;;;;4.50;2.10;;;32.30;62.00;;;;;;12089315;28;21878;-65
2021/09/13 17:23:42;;;;;;;5.93;2.53;;;30.40;66.50;;;;;;12047934;27;20884;-66
2021/09/13 17:29:30;;;;;;;6.38;3.20;;;28.90;71.70;;;;;;12032485;28;20101;-64
2021/09/13 17:35:17;;;;;;;4.78;2.80;;;27.80;76.80;;;;;;12025992;28;20048;-64
2021/09/13 17:41:04;;;;;;;6.85;2.85;;;27.10;80.90;;;;;;12036017;27;20052;-66
2021/09/13 17:46:52;;;;;;;6.68;3.53;;;26.50;83.90;;;;;;12028822;27;20474;-66
2021/09/13 17:52:39;;;;;;;5.95;3.00;;;26.00;86.50;;;;;;11994104;27;20055;-66
2021/09/13 17:58:26;;;;;;;6.43;2.35;;;25.60;88.60;;;;;;12058299;27;20056;-67
2021/09/13 18:04:14;;;;;;;7.75;2.78;;;25.30;90.10;;;;;;12064114;27;20052;-66
2021/09/13 18:10:07;;;;;;;5.47;3.33;;;25.00;90.80;;;;;;12052670;28;20052;-67
2021/09/13 18:15:59;;;;;;;2.88;2.58;;;24.60;91.50;;;;;;12019479;27;20051;-67
2021/09/13 18:28:30;;;;;;;5.03;2.60;;;24.10;92.40;;;;;;12063193;28;20122;-65
2021/09/13 18:34:20;;;;;;;5.88;2.70;;;23.90;92.90;;;;;;12009873;28;20104;-64
2021/09/13 18:40:08;;;;;;;6.00;3.05;;;23.80;93.20;;;;;;12037268;28;20044;-65
2021/09/13 18:45:56;;;;;;;7.88;3.20;;;23.60;93.60;;;;;;11996015;28;20059;-65
2021/09/13 18:51:43;;;;;;;4.05;3.03;;;23.50;94.10;;;;;;12057204;28;20048;-64
2021/09/13 18:57:30;;;;;;;5.55;2.83;;;23.40;94.40;;;;;;12070021;28;20137;-63
2021/09/13 19:03:19;;;;;;;5.57;3.25;;;23.30;94.50;;;;;;12063022;28;20079;-63
2021/09/13 19:09:07;;;;;;;6.22;2.75;;;23.20;94.80;;;;;;12063257;28;20045;-63
2021/09/13 19:14:53;;;;;;;11.30;3.38;;;23.20;95.10;;;;;;12062788;28;20558;-64
2021/09/13 19:20:42;;;;;;;3.80;2.97;;;23.10;95.40;;;;;;12058433;28;20040;-64
2021/09/13 19:26:29;;;;;;;6.13;3.08;;;23.00;95.50;;;;;;12094879;28;20048;-65
2021/09/13 19:32:16;;;;;;;7.88;3.70;;;23.00;95.70;;;;;;12110076;28;20040;-65
2021/09/13 19:38:04;;;;;;;8.75;3.13;;;22.90;95.90;;;;;;12109967;28;20054;-64
2021/09/13 19:43:51;;;;;;;5.13;3.90;;;22.80;96.10;;;;;;12075578;28;20045;-65
2021/09/13 19:49:38;;;;;;;5.68;3.47;;;22.80;96.10;;;;;;12086412;28;20040;-67
2021/09/13 19:55:47;;;;;;;6.00;3.50;;;22.80;96.30;;;;;;12087731;28;20047;-65
2021/09/13 20:01:36;;;;;;;6.13;3.83;;;22.70;96.70;;;;;;12114101;28;20167;-65
2021/09/13 20:13:33;;;;;;;6.25;3.58;;;22.70;96.70;;;;;;12055643;28;20068;-65
2021/09/13 20:19:20;;;;;;;8.25;3.58;;;22.60;96.90;;;;;;12060373;28;20043;-64
2021/09/13 20:25:07;;;;;;;6.47;3.92;;;22.60;97.10;;;;;;12082963;28;20041;-64
2021/09/13 20:30:56;;;;;;;5.63;3.45;;;22.60;97.30;;;;;;12062253;28;20052;-64
2021/09/13 20:36:45;;;;;;;5.43;3.47;;;22.50;97.40;;;;;;12073783;28;20044;-63
2021/09/13 20:42:32;;;;;;;7.90;4.10;;;22.50;97.50;;;;;;12082181;28;20411;-64
2021/09/13 20:48:20;;;;;;;5.65;3.80;;;22.50;97.60;;;;;;12079258;27;20518;-65
2021/09/13 20:54:07;;;;;;;5.82;3.83;;;22.40;97.90;;;;;;12051681;28;20048;-64
2021/09/13 20:59:54;;;;;;;5.15;3.60;;;22.20;98.20;;;;;;12080773;27;20186;-64
2021/09/13 21:05:45;;;;;;;6.45;3.97;;;22.20;98.60;;;;;;12107500;28;20131;-65
2021/09/13 21:11:33;;;;;;;8.40;4.30;;;22.40;98.30;;;;;;12107113;28;20040;-64
2021/09/13 21:17:20;;;;;;;9.55;4.03;;;22.40;98.20;;;;;;12116238;27;20538;-66
2021/09/13 21:23:09;;;;;;;5.85;3.95;;;22.40;98.30;;;;;;12115771;28;20040;-66
2021/09/13 21:28:56;;;;;;;5.55;3.80;;;22.30;98.60;;;;;;12115220;28;20048;-64
2021/09/13 21:34:43;;;;;;;10.18;4.07;;;22.30;98.90;;;;;;12115226;28;20051;-65
2021/09/13 21:40:31;;;;;;;5.00;3.72;;;22.20;99.00;;;;;;12117380;28;20051;-65
2021/09/13 21:46:18;;;;;;;4.90;4.00;;;22.30;99.10;;;;;;12094857;27;20098;-65
2021/09/13 21:52:06;;;;;;;7.05;4.25;;;22.30;99.20;;;;;;12093559;27;20040;-66
2021/09/13 21:57:54;;;;;;;9.23;4.70;;;22.30;99.30;;;;;;12114241;28;20055;-65
2021/09/13 22:03:41;;;;;;;5.82;4.63;;;22.40;99.40;;;;;;12113046;27;20063;-65
2021/09/13 22:09:28;;;;;;;9.95;4.32;;;22.40;99.90;;;;;;12113420;28;20399;-65
2021/09/13 22:15:17;;;;;;;7.07;3.85;;;22.40;99.70;;;;;;12085081;28;20044;-65
2021/09/13 22:21:05;;;;;;;8.57;4.00;;;22.40;99.90;;;;;;12092288;28;20040;-64
2021/09/13 22:26:52;;;;;;;5.18;3.40;;;22.40;99.90;;;;;;12128385;27;20450;-64
2021/09/13 22:32:40;;;;;;;6.25;3.97;;;22.40;99.90;;;;;;12112985;27;20052;-63
2021/09/13 22:38:27;;;;;;;6.35;4.15;;;22.40;99.90;;;;;;12020553;28;20437;-64
2021/09/13 22:44:14;;;;;;;7.43;4.07;;;22.40;99.90;;;;;;12059514;28;20153;-64
2021/09/13 22:50:03;;;;;;;7.78;3.58;;;22.30;99.90;;;;;;12079188;28;20044;-64
2021/09/13 22:55:50;;;;;;;4.82;3.72;;;22.30;99.90;;;;;;12111023;28;20060;-64
2021/09/13 23:01:37;;;;;;;6.28;3.88;;;22.30;99.90;;;;;;12065502;28;20071;-64
2021/09/13 23:07:25;;;;;;;9.32;3.80;;;22.30;99.90;;;;;;12069999;28;20420;-64
2021/09/13 23:13:12;;;;;;;6.93;3.67;;;22.30;99.90;;;;;;12051525;28;20040;-64
2021/09/13 23:18:59;;;;;;;8.13;4.40;;;22.30;99.90;;;;;;12062898;28;20040;-64
2021/09/13 23:24:47;;;;;;;7.60;3.88;;;22.40;99.90;;;;;;12059630;28;20146;-64
2021/09/13 23:30:35;;;;;;;7.78;3.97;;;22.40;99.90;;;;;;12085120;28;20044;-64
2021/09/13 23:36:22;;;;;;;5.28;3.60;;;22.30;99.90;;;;;;12061736;28;20052;-64
2021/09/13 23:42:10;;;;;;;5.35;3.72;;;22.30;99.90;;;;;;12076114;28;20116;-64
2021/09/13 23:47:57;;;;;;;7.28;3.78;;;22.30;99.90;;;;;;12038881;27;20048;-66
2021/09/13 23:53:44;;;;;;;6.35;3.72;;;22.30;99.90;;;;;;12042551;27;20048;-65
2021/09/13 23:59:32;;;;;;;5.65;4.03;;;22.30;99.90;;;;;;12068779;28;20043;-65
